FR-0078 weather

Hôpital Jean Minjoz Heliport
Besancon, Bourgogne-Franche-Comté, France

Public forecast

Using degrees Celsius for public forecast. Weather courtesy of forecast.io.

Closest aviation weather report (METAR) to Hôpital Jean Minjoz Heliport

Closest report is Dole-Tavaux Airport, 24.2 nm (44.9 km) WSW. Retrieved 2020/03/30 19:00 UTC (26 minutes ago):

LFGJ 301900Z AUTO 04012KT CAVOK 04/M03 Q1021

Closest aviation forecast (TAF) to Hôpital Jean Minjoz Heliport

Forecast is more than 12 hours old.

Closest forecast is Dijon-Bourgogne Airport, 35.7 nm (66.2 km) W. Retrieved 2015/06/01 00:11 UTC (5 years ago):

TAF LFSD 010600Z 0100/0124 CNL